createdAt,value
2018-08-06T00:00:40.398Z,22.09
2018-08-06T00:03:08.190Z,22.11
2018-08-06T00:05:35.874Z,22.11
2018-08-06T00:08:03.837Z,22.03
2018-08-06T00:10:31.491Z,21.96
2018-08-06T00:12:59.177Z,21.93
2018-08-06T00:15:26.783Z,21.88
2018-08-06T00:17:54.413Z,21.89
2018-08-06T00:20:22.055Z,21.82
2018-08-06T00:22:49.751Z,21.87
2018-08-06T00:25:17.912Z,21.91
2018-08-06T00:27:45.841Z,21.82
2018-08-06T00:30:14.482Z,21.70
2018-08-06T00:32:43.154Z,21.65
2018-08-06T00:35:11.299Z,21.70
2018-08-06T00:37:39.381Z,21.61
2018-08-06T00:40:08.270Z,21.59
2018-08-06T00:42:35.924Z,21.55
2018-08-06T00:45:04.446Z,21.50
2018-08-06T00:47:32.135Z,21.41
2018-08-06T00:50:00.266Z,21.47
2018-08-06T00:52:27.901Z,21.24
2018-08-06T00:54:55.577Z,21.35
2018-08-06T00:57:23.491Z,21.20
2018-08-06T00:59:51.119Z,21.18
2018-08-06T01:02:18.765Z,21.17
2018-08-06T01:04:46.424Z,21.20
2018-08-06T01:07:14.058Z,21.19
2018-08-06T01:09:41.705Z,21.25
2018-08-06T01:12:09.314Z,21.03
2018-08-06T01:14:36.932Z,21.09
2018-08-06T01:17:04.568Z,20.95
2018-08-06T01:19:32.214Z,20.87
2018-08-06T01:21:59.894Z,20.83
2018-08-06T01:24:27.510Z,20.76
2018-08-06T01:26:55.214Z,20.69
2018-08-06T01:29:22.881Z,20.80
2018-08-06T01:31:50.540Z,20.86
2018-08-06T01:34:18.146Z,20.82
2018-08-06T01:36:45.745Z,20.82
2018-08-06T01:39:13.413Z,20.81
2018-08-06T01:41:41.027Z,20.78
2018-08-06T01:44:08.859Z,20.74
2018-08-06T01:46:36.966Z,20.65
2018-08-06T01:49:04.786Z,20.68
2018-08-06T01:51:32.475Z,20.83
2018-08-06T01:54:00.351Z,20.78
2018-08-06T01:56:28.273Z,20.59
2018-08-06T01:58:56.049Z,20.55
2018-08-06T02:01:23.990Z,20.62
2018-08-06T02:03:51.646Z,20.61
2018-08-06T02:06:19.277Z,20.72
2018-08-06T02:08:46.902Z,20.70
2018-08-06T02:11:14.919Z,20.55
2018-08-06T02:13:42.524Z,20.62
2018-08-06T02:16:10.214Z,20.58
2018-08-06T02:18:37.833Z,20.55
2018-08-06T02:21:05.606Z,20.43
2018-08-06T02:23:33.221Z,20.43
2018-08-06T02:26:00.860Z,20.37
2018-08-06T02:28:28.521Z,20.34
2018-08-06T02:30:56.200Z,20.41
2018-08-06T02:33:23.908Z,20.48
2018-08-06T02:35:51.543Z,20.43
2018-08-06T02:38:19.166Z,20.38
2018-08-06T02:40:46.818Z,20.41
2018-08-06T02:43:14.434Z,20.59
2018-08-06T02:45:42.167Z,20.51
2018-08-06T02:48:09.813Z,20.41
2018-08-06T02:50:37.722Z,20.36
2018-08-06T02:53:05.382Z,20.31
2018-08-06T02:55:33.027Z,20.27
2018-08-06T02:58:00.690Z,20.26
2018-08-06T03:00:28.351Z,20.21
2018-08-06T03:02:55.993Z,20.18
2018-08-06T03:05:23.626Z,20.17
2018-08-06T03:07:51.338Z,20.22
2018-08-06T03:10:19.283Z,20.18
2018-08-06T03:12:47.131Z,20.08
2018-08-06T03:15:14.812Z,20.11
2018-08-06T03:17:42.507Z,20.08
2018-08-06T03:20:11.230Z,20.01
2018-08-06T03:22:39.190Z,19.94
2018-08-06T03:25:08.210Z,19.82
2018-08-06T03:27:35.929Z,19.82
2018-08-06T03:30:05.054Z,19.74
2018-08-06T03:32:32.646Z,19.75
2018-08-06T03:35:00.274Z,19.63
2018-08-06T03:37:27.983Z,19.62
2018-08-06T03:39:55.627Z,19.60
2018-08-06T03:42:23.247Z,19.54
2018-08-06T03:44:50.877Z,19.47
2018-08-06T03:47:18.479Z,19.44
2018-08-06T03:49:46.122Z,19.50
2018-08-06T03:52:13.771Z,19.40
2018-08-06T03:54:41.393Z,19.39
2018-08-06T03:57:09.023Z,19.41
2018-08-06T03:59:36.614Z,19.39
2018-08-06T04:02:04.273Z,19.37
2018-08-06T04:04:31.904Z,19.33
2018-08-06T04:06:59.523Z,19.38
2018-08-06T04:09:27.180Z,19.47
2018-08-06T04:11:54.793Z,19.47
2018-08-06T04:14:22.442Z,19.46
2018-08-06T04:16:50.076Z,19.44
2018-08-06T04:19:17.723Z,19.42
2018-08-06T04:21:45.653Z,19.35
2018-08-06T04:24:13.266Z,19.19
2018-08-06T04:26:40.865Z,19.19
2018-08-06T04:29:08.510Z,19.23
2018-08-06T04:31:36.634Z,19.25
2018-08-06T04:34:04.430Z,19.42
2018-08-06T04:36:32.806Z,19.52
2018-08-06T04:39:00.710Z,19.55
2018-08-06T04:41:28.382Z,19.63
2018-08-06T04:43:56.027Z,19.76
2018-08-06T04:46:23.678Z,19.79
2018-08-06T04:48:51.325Z,19.69
2018-08-06T04:51:20.011Z,19.86
2018-08-06T04:53:47.634Z,19.90
2018-08-06T04:56:15.286Z,20.03
2018-08-06T04:58:42.922Z,20.29
2018-08-06T05:01:10.522Z,20.22
2018-08-06T05:03:38.412Z,20.07
2018-08-06T05:06:06.026Z,20.18
2018-08-06T05:08:33.750Z,20.24
2018-08-06T05:11:01.483Z,20.13
2018-08-06T05:13:29.134Z,20.30
2018-08-06T05:15:56.792Z,20.35
2018-08-06T05:18:24.402Z,20.30
2018-08-06T05:20:52.103Z,20.18
2018-08-06T05:23:19.941Z,20.36
2018-08-06T05:25:47.552Z,20.51
2018-08-06T05:28:15.226Z,20.72
2018-08-06T05:30:42.927Z,20.92
2018-08-06T05:33:10.593Z,21.13
2018-08-06T05:35:38.281Z,21.20
2018-08-06T05:38:06.010Z,21.53
2018-08-06T05:40:33.701Z,21.65
2018-08-06T05:43:01.362Z,21.81
2018-08-06T05:45:29.106Z,22.07
2018-08-06T05:47:56.810Z,22.27
2018-08-06T05:50:24.486Z,22.39
2018-08-06T05:52:52.342Z,22.71
2018-08-06T05:55:20.022Z,23.09
2018-08-06T05:57:47.754Z,23.08
2018-08-06T06:00:16.818Z,23.13
2018-08-06T06:02:45.055Z,23.41
2018-08-06T06:05:12.808Z,23.50
2018-08-06T06:07:40.982Z,23.55
2018-08-06T06:10:09.696Z,23.68
2018-08-06T06:12:37.408Z,23.62
2018-08-06T06:15:07.732Z,23.44
2018-08-06T06:17:35.405Z,23.66
2018-08-06T06:20:03.612Z,23.56
2018-08-06T06:22:31.334Z,23.63
2018-08-06T06:24:58.982Z,23.93
2018-08-06T06:27:26.663Z,24.24
2018-08-06T06:29:54.600Z,24.46
2018-08-06T06:32:22.271Z,24.79
2018-08-06T06:34:50.116Z,25.05
2018-08-06T06:37:17.814Z,25.22
2018-08-06T06:39:45.556Z,25.48
2018-08-06T06:42:13.249Z,25.42
2018-08-06T06:44:40.957Z,25.49
2018-08-06T06:47:08.681Z,25.66
2018-08-06T06:49:36.427Z,25.82
2018-08-06T06:52:04.110Z,26.01
2018-08-06T06:54:31.887Z,26.24
2018-08-06T06:56:59.515Z,26.58
2018-08-06T06:59:27.278Z,27.15
2018-08-06T07:01:54.967Z,27.63
2018-08-06T07:04:22.648Z,28.03
2018-08-06T07:06:50.380Z,28.07
2018-08-06T07:09:18.094Z,28.16
2018-08-06T07:11:45.797Z,28.41
2018-08-06T07:14:13.525Z,28.50
2018-08-06T07:16:41.351Z,29.02
2018-08-06T07:19:09.047Z,29.38
2018-08-06T07:21:36.770Z,29.77
2018-08-06T07:24:04.484Z,30.16
2018-08-06T07:26:32.263Z,30.34
2018-08-06T07:28:59.975Z,30.46
2018-08-06T07:31:27.698Z,30.80
2018-08-06T07:33:55.379Z,31.27
2018-08-06T07:36:23.085Z,31.42
2018-08-06T07:38:50.865Z,31.48
2018-08-06T07:41:18.538Z,32.04
2018-08-06T07:43:46.238Z,32.59
2018-08-06T07:46:13.924Z,32.74
2018-08-06T07:48:41.663Z,32.57
2018-08-06T07:51:09.381Z,32.43
2018-08-06T07:53:37.077Z,33.19
2018-08-06T07:56:04.940Z,33.37
2018-08-06T07:58:32.634Z,34.03
2018-08-06T08:01:00.467Z,34.00
2018-08-06T08:03:28.218Z,33.83
2018-08-06T08:05:55.989Z,33.92
2018-08-06T08:08:23.698Z,34.47
2018-08-06T08:10:51.433Z,34.44
2018-08-06T08:13:19.138Z,35.40
2018-08-06T08:15:46.882Z,35.31
2018-08-06T08:18:14.574Z,35.23
2018-08-06T08:20:42.269Z,36.09
2018-08-06T08:23:10.265Z,35.85
2018-08-06T08:25:37.954Z,36.33
2018-08-06T08:28:05.713Z,36.03
2018-08-06T08:30:33.466Z,35.46
2018-08-06T08:33:01.540Z,36.06
2018-08-06T08:35:29.947Z,36.82
2018-08-06T08:37:57.915Z,37.25
2018-08-06T08:40:25.680Z,37.09
2018-08-06T08:42:53.394Z,37.03
2018-08-06T08:45:21.138Z,36.85
2018-08-06T08:47:48.875Z,37.31
2018-08-06T08:50:17.726Z,37.43
2018-08-06T08:52:45.449Z,37.23
2018-08-06T08:55:14.136Z,37.11
2018-08-06T08:57:42.015Z,36.88
2018-08-06T09:00:13.528Z,36.51
2018-08-06T09:02:42.175Z,36.51
2018-08-06T09:05:09.981Z,36.11
2018-08-06T09:07:38.097Z,36.01
2018-08-06T09:10:07.229Z,36.16
2018-08-06T09:12:35.081Z,36.97
2018-08-06T09:15:03.179Z,37.38
2018-08-06T09:17:31.233Z,37.99
2018-08-06T09:19:58.901Z,38.42
2018-08-06T09:22:26.611Z,38.23
2018-08-06T09:24:54.338Z,38.26
2018-08-06T09:27:22.035Z,37.81
2018-08-06T09:29:50.030Z,37.99
2018-08-06T09:32:17.730Z,38.28
2018-08-06T09:34:45.423Z,38.00
2018-08-06T09:37:13.171Z,37.72
2018-08-06T09:39:40.857Z,37.90
2018-08-06T09:42:08.558Z,38.02
2018-08-06T09:44:36.297Z,38.62
2018-08-06T09:47:04.020Z,38.18
2018-08-06T09:49:32.947Z,38.33
2018-08-06T09:52:00.745Z,38.67
2018-08-06T09:54:28.433Z,38.27
2018-08-06T09:56:56.185Z,38.70
2018-08-06T09:59:23.911Z,38.41
2018-08-06T10:01:55.351Z,37.58
2018-08-06T10:04:23.328Z,37.43
2018-08-06T10:06:51.039Z,37.59
2018-08-06T10:09:19.062Z,37.83
2018-08-06T10:11:47.059Z,37.58
2018-08-06T10:14:14.829Z,37.25
2018-08-06T10:16:42.586Z,36.79
2018-08-06T10:19:10.310Z,36.82
2018-08-06T10:21:38.060Z,36.20
2018-08-06T10:24:05.814Z,35.70
2018-08-06T10:26:33.526Z,35.10
2018-08-06T10:29:01.271Z,35.14
2018-08-06T10:31:28.986Z,35.28
2018-08-06T10:33:56.718Z,34.81
2018-08-06T10:36:24.732Z,34.65
2018-08-06T10:38:52.471Z,34.91
2018-08-06T10:41:20.257Z,34.66
2018-08-06T10:43:48.258Z,34.63
2018-08-06T10:46:16.042Z,34.85
2018-08-06T10:48:44.511Z,34.52
2018-08-06T10:51:12.218Z,34.35
2018-08-06T10:53:39.962Z,34.30
2018-08-06T10:56:07.724Z,34.08
2018-08-06T10:58:35.495Z,34.26
2018-08-06T11:01:03.174Z,34.19
2018-08-06T11:03:30.930Z,35.07
2018-08-06T11:05:58.629Z,35.63
2018-08-06T11:08:26.367Z,35.99
2018-08-06T11:10:54.096Z,36.23
2018-08-06T11:13:21.817Z,36.64
2018-08-06T11:15:50.237Z,36.45
2018-08-06T11:18:18.015Z,35.87
2018-08-06T11:20:45.732Z,34.64
2018-08-06T11:23:13.448Z,34.07
2018-08-06T11:25:41.134Z,34.26
2018-08-06T11:28:08.925Z,34.44
2018-08-06T11:30:36.664Z,33.78
2018-08-06T11:33:04.397Z,33.62
2018-08-06T11:35:32.165Z,33.47
2018-08-06T11:37:59.863Z,33.68
2018-08-06T11:40:27.543Z,34.17
2018-08-06T11:42:55.230Z,34.00
2018-08-06T11:45:23.029Z,34.11
2018-08-06T11:47:50.914Z,34.45
2018-08-06T11:50:18.670Z,34.64
2018-08-06T11:52:46.808Z,34.77
2018-08-06T11:55:14.490Z,35.07
2018-08-06T11:57:42.197Z,34.91
2018-08-06T12:00:12.987Z,35.37
2018-08-06T12:02:40.742Z,35.24
2018-08-06T12:05:08.484Z,35.01
2018-08-06T12:07:36.624Z,34.58
2018-08-06T12:10:05.274Z,34.21
2018-08-06T12:12:33.025Z,34.06
2018-08-06T12:15:00.759Z,34.21
2018-08-06T12:17:28.449Z,34.29
2018-08-06T12:19:56.154Z,34.50
2018-08-06T12:22:23.879Z,34.60
2018-08-06T12:24:51.629Z,34.64
2018-08-06T12:27:19.363Z,34.82
2018-08-06T12:29:47.016Z,34.23
2018-08-06T12:32:14.703Z,33.92
2018-08-06T12:34:42.635Z,34.51
2018-08-06T12:37:10.321Z,34.54
2018-08-06T12:39:38.050Z,34.51
2018-08-06T12:42:05.809Z,34.46
2018-08-06T12:44:33.556Z,34.42
2018-08-06T12:47:01.331Z,34.25
2018-08-06T12:49:29.041Z,34.24
2018-08-06T12:51:56.718Z,33.94
2018-08-06T12:54:24.445Z,33.95
2018-08-06T12:56:52.158Z,33.86
2018-08-06T12:59:20.362Z,33.65
2018-08-06T13:01:48.026Z,33.68
2018-08-06T13:04:15.733Z,33.76
2018-08-06T13:06:43.427Z,33.74
2018-08-06T13:09:11.147Z,33.61
2018-08-06T13:11:38.882Z,33.74
2018-08-06T13:14:07.013Z,33.75
2018-08-06T13:16:35.057Z,34.00
2018-08-06T13:19:02.774Z,33.81
2018-08-06T13:21:30.586Z,33.67
2018-08-06T13:23:58.269Z,33.75
2018-08-06T13:26:25.974Z,33.96
2018-08-06T13:28:53.637Z,34.01
2018-08-06T13:31:21.367Z,33.75
2018-08-06T13:33:49.030Z,33.67
2018-08-06T13:36:16.739Z,33.76
2018-08-06T13:38:44.411Z,33.89
2018-08-06T13:41:12.094Z,33.79
2018-08-06T13:43:39.757Z,33.38
2018-08-06T13:46:08.126Z,33.41
2018-08-06T13:48:35.823Z,33.58
2018-08-06T13:51:03.518Z,33.53
2018-08-06T13:53:31.369Z,33.82
2018-08-06T13:55:59.097Z,33.85
2018-08-06T13:58:26.841Z,33.88
2018-08-06T14:00:54.608Z,33.71
2018-08-06T14:03:22.313Z,33.65
2018-08-06T14:05:50.028Z,33.55
2018-08-06T14:08:17.771Z,33.36
2018-08-06T14:10:45.501Z,33.26
2018-08-06T14:13:13.197Z,33.47
2018-08-06T14:15:40.894Z,33.46
2018-08-06T14:18:08.584Z,33.31
2018-08-06T14:20:36.278Z,33.27
2018-08-06T14:23:03.977Z,33.11
2018-08-06T14:25:31.667Z,33.00
2018-08-06T14:28:00.466Z,33.07
2018-08-06T14:30:28.159Z,33.22
2018-08-06T14:32:55.886Z,33.36
2018-08-06T14:35:23.550Z,33.38
2018-08-06T14:37:51.309Z,33.69
2018-08-06T14:40:19.351Z,33.67
2018-08-06T14:42:47.378Z,33.77
2018-08-06T14:45:15.200Z,33.50
2018-08-06T14:47:42.939Z,33.74
2018-08-06T14:50:11.767Z,33.75
2018-08-06T14:52:39.494Z,33.74
2018-08-06T14:55:08.826Z,33.64
2018-08-06T14:57:37.725Z,33.55
2018-08-06T15:00:07.131Z,33.62
2018-08-06T15:02:34.839Z,33.28
2018-08-06T15:05:02.550Z,33.15
2018-08-06T15:07:30.306Z,33.01
2018-08-06T15:09:57.947Z,33.18
2018-08-06T15:12:25.964Z,33.31
2018-08-06T15:14:53.738Z,33.35
2018-08-06T15:17:21.464Z,33.26
2018-08-06T15:19:49.155Z,33.24
2018-08-06T15:22:16.884Z,33.24
2018-08-06T15:24:44.578Z,33.21
2018-08-06T15:27:12.374Z,33.15
2018-08-06T15:29:40.061Z,33.24
2018-08-06T15:32:08.216Z,33.17
2018-08-06T15:34:35.867Z,33.33
2018-08-06T15:37:03.987Z,33.33
2018-08-06T15:39:31.735Z,33.31
2018-08-06T15:41:59.447Z,33.43
2018-08-06T15:44:27.149Z,33.46
2018-08-06T15:46:54.810Z,33.54
2018-08-06T15:49:22.514Z,33.64
2018-08-06T15:51:50.190Z,33.45
2018-08-06T15:54:17.850Z,33.42
2018-08-06T15:56:45.542Z,33.52
2018-08-06T15:59:13.218Z,33.61
2018-08-06T16:01:40.906Z,33.66
2018-08-06T16:04:08.674Z,33.70
2018-08-06T16:06:36.368Z,33.61
2018-08-06T16:09:05.814Z,33.63
2018-08-06T16:11:33.552Z,33.48
2018-08-06T16:14:01.210Z,33.49
2018-08-06T16:16:28.927Z,33.28
2018-08-06T16:18:56.608Z,33.14
2018-08-06T16:21:24.510Z,33.04
2018-08-06T16:23:52.502Z,32.82
2018-08-06T16:26:20.216Z,32.73
2018-08-06T16:28:47.914Z,32.74
2018-08-06T16:31:15.692Z,32.76
2018-08-06T16:33:43.571Z,32.68
2018-08-06T16:36:11.263Z,32.64
2018-08-06T16:38:38.982Z,32.43
2018-08-06T16:41:06.734Z,32.59
2018-08-06T16:43:34.423Z,32.49
2018-08-06T16:46:02.206Z,32.42
2018-08-06T16:48:29.999Z,32.37
2018-08-06T16:50:57.743Z,32.33
2018-08-06T16:53:25.447Z,32.32
2018-08-06T16:55:53.161Z,32.25
2018-08-06T16:58:20.823Z,32.14
2018-08-06T17:00:48.615Z,32.14
2018-08-06T17:03:16.338Z,32.15
2018-08-06T17:05:44.046Z,32.14
2018-08-06T17:08:11.830Z,32.12
2018-08-06T17:10:39.711Z,32.14
2018-08-06T17:13:07.410Z,31.99
2018-08-06T17:15:35.145Z,32.01
2018-08-06T17:18:02.878Z,32.10
2018-08-06T17:20:30.622Z,32.14
2018-08-06T17:22:58.756Z,32.04
2018-08-06T17:25:26.506Z,31.95
2018-08-06T17:27:54.239Z,31.87
2018-08-06T17:30:21.950Z,31.76
2018-08-06T17:32:49.710Z,31.79
2018-08-06T17:35:17.439Z,31.84
2018-08-06T17:37:45.207Z,31.82
2018-08-06T17:40:14.516Z,31.80
2018-08-06T17:42:42.313Z,31.74
2018-08-06T17:45:11.663Z,31.70
2018-08-06T17:47:39.487Z,31.62
2018-08-06T17:50:08.033Z,31.52
2018-08-06T17:52:35.771Z,31.43
2018-08-06T17:55:03.500Z,31.40
2018-08-06T17:57:31.387Z,31.25
2018-08-06T17:59:59.108Z,31.22
2018-08-06T18:02:26.800Z,31.09
2018-08-06T18:04:55.545Z,31.10
2018-08-06T18:07:23.230Z,31.04
2018-08-06T18:09:50.928Z,30.92
2018-08-06T18:12:18.953Z,30.76
2018-08-06T18:14:46.623Z,30.65
2018-08-06T18:17:14.327Z,30.57
2018-08-06T18:19:42.046Z,30.38
2018-08-06T18:22:09.724Z,30.20
2018-08-06T18:24:37.440Z,29.82
2018-08-06T18:27:05.234Z,29.63
2018-08-06T18:29:33.061Z,29.07
2018-08-06T18:32:00.892Z,28.42
2018-08-06T18:34:28.617Z,27.87
2018-08-06T18:36:56.396Z,27.54
2018-08-06T18:39:24.030Z,27.40
2018-08-06T18:41:51.766Z,27.42
2018-08-06T18:44:19.446Z,27.44
2018-08-06T18:46:47.111Z,27.37
2018-08-06T18:49:15.180Z,27.46
2018-08-06T18:51:42.878Z,27.44
2018-08-06T18:54:10.571Z,27.25
2018-08-06T18:56:38.343Z,27.19
2018-08-06T18:59:06.342Z,27.17
2018-08-06T19:01:34.074Z,27.17
2018-08-06T19:04:01.881Z,27.26
2018-08-06T19:06:29.585Z,27.40
2018-08-06T19:08:57.345Z,27.28
2018-08-06T19:11:25.052Z,27.13
2018-08-06T19:13:58.777Z,26.81
2018-08-06T19:16:26.502Z,26.71
2018-08-06T19:19:00.201Z,26.58
2018-08-06T19:21:27.899Z,26.58
2018-08-06T19:24:01.183Z,26.38
2018-08-06T19:26:28.881Z,26.34
2018-08-06T19:28:56.624Z,26.05
2018-08-06T19:31:25.194Z,26.02
2018-08-06T19:33:53.355Z,26.00
2018-08-06T19:36:21.166Z,26.07
2018-08-06T19:38:48.930Z,26.20
2018-08-06T19:41:16.655Z,26.26
2018-08-06T19:43:44.609Z,26.26
2018-08-06T19:46:12.368Z,26.14
2018-08-06T19:48:40.146Z,26.27
2018-08-06T19:51:07.901Z,26.06
2018-08-06T19:53:35.685Z,25.94
2018-08-06T19:56:09.074Z,25.91
2018-08-06T19:58:36.830Z,25.81
2018-08-06T20:01:04.586Z,25.72
2018-08-06T20:03:32.349Z,25.65
2018-08-06T20:06:00.052Z,25.66
2018-08-06T20:08:27.839Z,25.62
2018-08-06T20:10:55.633Z,25.66
2018-08-06T20:13:23.530Z,25.69
2018-08-06T20:15:51.309Z,25.69
2018-08-06T20:18:19.932Z,25.67
2018-08-06T20:20:47.684Z,25.66
2018-08-06T20:23:15.399Z,25.60
2018-08-06T20:25:43.097Z,25.32
2018-08-06T20:28:10.807Z,25.32
2018-08-06T20:30:38.479Z,25.30
2018-08-06T20:33:06.223Z,25.34
2018-08-06T20:35:33.960Z,25.32
2018-08-06T20:38:01.667Z,25.36
2018-08-06T20:40:29.839Z,25.39
2018-08-06T20:42:57.564Z,25.40
2018-08-06T20:45:25.279Z,25.38
2018-08-06T20:47:53.011Z,25.33
2018-08-06T20:50:21.879Z,25.39
2018-08-06T20:52:50.893Z,25.44
2018-08-06T20:55:18.663Z,25.27
2018-08-06T20:57:46.779Z,25.28
2018-08-06T21:00:19.615Z,25.28
2018-08-06T21:02:48.267Z,25.20
2018-08-06T21:05:16.274Z,25.11
2018-08-06T21:07:44.022Z,25.17
2018-08-06T21:10:13.037Z,25.28
2018-08-06T21:12:40.778Z,25.18
2018-08-06T21:15:09.557Z,25.13
2018-08-06T21:17:37.645Z,25.07
2018-08-06T21:20:06.539Z,25.05
2018-08-06T21:22:34.296Z,25.01
2018-08-06T21:25:02.038Z,25.07
2018-08-06T21:27:29.781Z,25.05
2018-08-06T21:29:57.459Z,25.11
2018-08-06T21:32:25.174Z,25.05
2018-08-06T21:34:52.890Z,25.06
2018-08-06T21:37:20.627Z,25.07
2018-08-06T21:39:48.320Z,25.07
2018-08-06T21:42:16.401Z,25.02
2018-08-06T21:44:44.202Z,25.08
2018-08-06T21:47:11.871Z,25.14
2018-08-06T21:49:39.904Z,25.05
2018-08-06T21:52:07.621Z,24.98
2018-08-06T21:54:35.393Z,24.89
2018-08-06T21:57:03.142Z,24.83
2018-08-06T21:59:30.921Z,24.60
2018-08-06T22:01:58.594Z,24.51
2018-08-06T22:04:26.323Z,24.41
2018-08-06T22:06:54.059Z,24.35
2018-08-06T22:09:21.756Z,24.25
2018-08-06T22:11:49.508Z,24.13
2018-08-06T22:14:17.231Z,23.95
2018-08-06T22:16:44.946Z,23.98
2018-08-06T22:19:12.666Z,23.94
2018-08-06T22:21:40.370Z,24.00
2018-08-06T22:24:08.378Z,23.99
2018-08-06T22:26:36.446Z,23.84
2018-08-06T22:29:04.555Z,23.84
2018-08-06T22:31:32.282Z,23.77
2018-08-06T22:34:00.067Z,23.66
2018-08-06T22:36:27.663Z,23.51
2018-08-06T22:38:55.373Z,23.60
2018-08-06T22:41:23.849Z,23.51
2018-08-06T22:43:51.903Z,23.43
2018-08-06T22:46:19.821Z,23.41
2018-08-06T22:48:47.527Z,23.46
2018-08-06T22:51:15.222Z,23.48
2018-08-06T22:53:43.083Z,23.44
2018-08-06T22:56:11.277Z,23.48
2018-08-06T22:58:39.118Z,23.52
2018-08-06T23:01:07.527Z,23.56
2018-08-06T23:03:35.266Z,23.50
2018-08-06T23:06:03.039Z,23.50
2018-08-06T23:08:30.719Z,23.48
2018-08-06T23:10:58.754Z,23.57
2018-08-06T23:13:26.454Z,23.57
2018-08-06T23:15:54.186Z,23.66
2018-08-06T23:18:21.919Z,23.56
2018-08-06T23:20:49.605Z,23.51
2018-08-06T23:23:17.469Z,23.49
2018-08-06T23:25:45.150Z,23.44
2018-08-06T23:28:12.853Z,23.48
2018-08-06T23:30:40.655Z,23.55
2018-08-06T23:33:08.339Z,23.53
2018-08-06T23:35:36.042Z,23.51
2018-08-06T23:38:03.751Z,23.61
2018-08-06T23:40:31.447Z,23.56
2018-08-06T23:42:59.144Z,23.50
2018-08-06T23:45:26.857Z,23.41
2018-08-06T23:47:54.603Z,23.25
2018-08-06T23:50:22.246Z,23.19
2018-08-06T23:52:49.970Z,23.21
2018-08-06T23:55:18.050Z,23.23
2018-08-06T23:57:46.046Z,23.36
